Time;durP1;ratioP1;P1;durP2;ratioP2;P2;SDS_P1;SDS_P2;PMS_P1;PMS_P2;Temp;Humidity;BMP_temperature;BMP_pressure;BME280_temperature;BME280_humidity;BME280_pressure;Samples;Min_cycle;Max_cycle;Signal;HPM_P1;HPM_P2
2024/04/21 00:02:24;;;;;;;6.83;4.90;;;4.80;1.00;;;;;;5378386;26;20575;-81
2024/04/21 00:04:53;;;;;;;5.63;4.53;;;4.80;3.30;;;;;;5371949;26;20290;-81
2024/04/21 00:07:19;;;;;;;6.10;4.67;;;4.80;99.90;;;;;;5384570;26;20284;-81
2024/04/21 00:09:47;;;;;;;5.87;5.27;;;4.60;1.00;;;;;;5383801;26;20245;-81
2024/04/21 00:12:16;;;;;;;6.00;4.27;;;4.60;99.90;;;;;;5383553;26;20229;-81
2024/04/21 00:14:44;;;;;;;6.07;4.60;;;4.70;99.90;;;;;;5382020;26;20250;-81
2024/04/21 00:17:11;;;;;;;6.47;4.07;;;4.70;1.30;;;;;;5383227;26;20241;-80
2024/04/21 00:19:39;;;;;;;8.27;4.67;;;4.70;98.90;;;;;;5377974;26;20237;-81
2024/04/21 00:22:05;;;;;;;7.67;4.97;;;4.70;99.90;;;;;;5384004;26;20234;-81
2024/04/21 00:24:34;;;;;;;6.13;4.73;;;4.60;99.90;;;;;;5381993;26;20242;-82
2024/04/21 00:27:00;;;;;;;6.87;4.87;;;4.50;99.90;;;;;;5385322;26;20288;-82
2024/04/21 00:29:31;;;;;;;6.00;4.63;;;4.50;99.90;;;;;;5384061;26;20237;-81
2024/04/21 00:31:57;;;;;;;6.23;4.40;;;4.50;96.80;;;;;;5382854;26;20786;-82
2024/04/21 00:34:25;;;;;;;8.87;5.40;;;4.50;1.00;;;;;;5382169;26;20242;-82
2024/04/21 00:36:51;;;;;;;8.00;5.03;;;4.60;1.00;;;;;;5387525;26;20249;-82
2024/04/21 00:39:20;;;;;;;8.90;5.93;;;4.70;92.30;;;;;;5397885;26;20225;-82
2024/04/21 00:41:46;;;;;;;7.10;5.50;;;4.60;99.90;;;;;;5382870;26;20280;-81
2024/04/21 00:44:14;;;;;;;8.60;5.20;;;4.60;1.00;;;;;;5385508;26;20238;-81
2024/04/21 00:46:43;;;;;;;8.83;5.57;;;4.60;1.00;;;;;;5383909;26;20618;-80
2024/04/21 00:49:13;;;;;;;8.93;5.63;;;4.60;1.00;;;;;;5377167;26;20299;-80
2024/04/21 00:51:42;;;;;;;6.93;4.70;;;4.50;1.00;;;;;;5383650;26;20278;-81
2024/04/21 00:54:11;;;;;;;9.47;5.77;;;4.40;48.30;;;;;;5370287;26;20292;-81
2024/04/21 00:56:39;;;;;;;9.60;5.53;;;4.50;1.00;;;;;;5383367;26;20257;-80
2024/04/21 00:59:09;;;;;;;7.03;5.17;;;4.50;1.00;;;;;;5372408;26;20254;-81
2024/04/21 01:01:35;;;;;;;7.80;5.00;;;4.50;53.90;;;;;;5383563;26;20249;-81
2024/04/21 01:04:07;;;;;;;7.87;5.70;;;4.40;99.90;;;;;;5368816;26;20245;-79
2024/04/21 01:06:33;;;;;;;9.70;5.77;;;4.40;99.90;;;;;;5369359;26;20246;-80
2024/04/21 01:09:02;;;;;;;8.37;5.70;;;4.50;99.90;;;;;;5383209;26;20280;-80
2024/04/21 01:11:28;;;;;;;8.73;5.47;;;4.60;99.90;;;;;;5380059;26;20241;-80
2024/04/21 01:13:56;;;;;;;8.70;5.50;;;4.70;1.00;;;;;;5377223;26;20296;-80
2024/04/21 01:16:22;;;;;;;7.43;5.20;;;4.60;1.00;;;;;;5377444;26;20237;-81
2024/04/21 01:18:51;;;;;;;7.67;5.37;;;4.50;1.00;;;;;;5381224;26;20241;-81
2024/04/21 01:21:19;;;;;;;7.70;5.43;;;4.50;65.30;;;;;;5377637;26;20229;-82
2024/04/21 01:23:51;;;;;;;9.23;5.90;;;4.40;99.90;;;;;;5370465;26;20273;-82
2024/04/21 01:26:16;;;;;;;9.30;6.03;;;4.40;99.90;;;;;;5378371;26;20280;-80
2024/04/21 01:28:45;;;;;;;11.20;6.30;;;4.40;99.90;;;;;;5381504;26;20253;-81
2024/04/21 01:31:11;;;;;;;10.47;7.07;;;4.40;99.90;;;;;;5374340;26;20234;-81
2024/04/21 01:33:39;;;;;;;9.37;6.53;;;4.40;99.90;;;;;;5378778;26;20291;-83
2024/04/21 01:36:06;;;;;;;10.43;6.00;;;4.30;99.90;;;;;;5375028;26;20681;-79
2024/04/21 01:38:35;;;;;;;12.20;7.07;;;4.40;99.90;;;;;;5390488;26;20256;-82
2024/04/21 01:41:03;;;;;;;9.93;6.20;;;4.30;99.90;;;;;;5377789;26;20748;-79
2024/04/21 01:43:35;;;;;;;10.37;6.43;;;4.30;99.90;;;;;;5368559;26;20237;-80
2024/04/21 01:46:01;;;;;;;10.17;6.87;;;4.20;99.90;;;;;;5381958;26;20233;-82
2024/04/21 01:48:30;;;;;;;8.37;5.73;;;4.10;99.90;;;;;;5369172;26;20617;-79
2024/04/21 01:50:56;;;;;;;9.57;7.07;;;4.00;99.90;;;;;;5380343;26;20920;-80
2024/04/21 01:53:25;;;;;;;9.90;6.13;;;4.00;99.90;;;;;;5381498;26;20272;-79
2024/04/21 01:55:51;;;;;;;8.80;5.77;;;3.90;99.90;;;;;;5370052;26;20241;-81
2024/04/21 01:58:22;;;;;;;8.37;6.03;;;3.90;99.90;;;;;;5381319;26;20288;-79
2024/04/21 02:00:48;;;;;;;9.73;6.43;;;3.80;99.90;;;;;;5372993;26;20636;-80
2024/04/21 02:03:17;;;;;;;9.10;6.20;;;3.80;99.90;;;;;;5380022;26;20261;-80
2024/04/21 02:05:43;;;;;;;9.93;7.10;;;3.90;99.90;;;;;;5381412;26;20230;-79
2024/04/21 02:08:11;;;;;;;9.17;5.83;;;3.70;99.90;;;;;;5367374;26;20292;-78
2024/04/21 02:10:37;;;;;;;9.27;5.63;;;3.80;99.90;;;;;;5381143;26;20234;-80
2024/04/21 02:13:06;;;;;;;9.03;5.87;;;3.90;99.90;;;;;;5380851;26;20249;-80
2024/04/21 02:15:35;;;;;;;9.43;6.67;;;3.90;99.90;;;;;;5375803;26;20237;-80
2024/04/21 02:18:03;;;;;;;9.40;6.60;;;3.90;99.90;;;;;;5380497;26;20241;-83
2024/04/21 02:20:29;;;;;;;8.47;6.23;;;3.90;99.90;;;;;;5380923;26;20241;-80
2024/04/21 02:22:58;;;;;;;9.70;6.67;;;3.90;99.90;;;;;;5367133;26;20626;-80
2024/04/21 02:25:23;;;;;;;8.53;5.60;;;3.80;99.90;;;;;;5381079;26;20736;-79
2024/04/21 02:27:52;;;;;;;9.77;6.23;;;3.70;99.90;;;;;;5380646;26;20241;-80
2024/04/21 02:30:18;;;;;;;10.00;6.00;;;3.70;99.90;;;;;;5378609;26;20245;-80
2024/04/21 02:32:49;;;;;;;8.93;6.23;;;3.70;99.90;;;;;;5378414;26;21033;-80
2024/04/21 02:35:17;;;;;;;7.10;5.20;;;3.50;99.90;;;;;;5381748;26;20292;-79
2024/04/21 02:37:45;;;;;;;9.20;6.20;;;3.50;99.90;;;;;;5380725;26;20664;-79
2024/04/21 02:40:11;;;;;;;11.43;6.33;;;3.50;99.90;;;;;;5382887;26;20285;-79
2024/04/21 02:42:40;;;;;;;11.37;6.90;;;3.40;99.90;;;;;;5384066;26;20245;-79
2024/04/21 02:45:07;;;;;;;10.23;6.27;;;3.40;99.90;;;;;;5362119;26;20631;-82
2024/04/21 02:47:35;;;;;;;9.77;6.13;;;3.20;99.90;;;;;;5373053;26;20270;-82
2024/04/21 02:50:05;;;;;;;10.97;6.77;;;3.20;99.90;;;;;;5384295;26;20638;-79
2024/04/21 02:52:33;;;;;;;10.10;6.80;;;3.10;99.90;;;;;;5384392;26;20264;-80
2024/04/21 02:54:59;;;;;;;10.10;6.60;;;3.00;99.90;;;;;;5385364;26;20314;-80
2024/04/21 02:57:28;;;;;;;10.03;6.30;;;3.00;99.90;;;;;;5384199;26;20749;-79
2024/04/21 02:59:56;;;;;;;8.57;6.10;;;2.90;99.90;;;;;;5383061;26;20230;-81
2024/04/21 03:02:24;;;;;;;9.30;5.97;;;2.90;99.90;;;;;;5368293;26;20651;-80
2024/04/21 03:04:50;;;;;;;10.37;6.83;;;2.90;99.90;;;;;;5379344;26;20226;-80
2024/04/21 03:07:21;;;;;;;9.87;6.40;;;2.80;99.90;;;;;;5384056;26;20618;-79
2024/04/21 03:09:47;;;;;;;8.67;5.83;;;2.90;99.90;;;;;;5383622;26;20678;-79
2024/04/21 03:12:16;;;;;;;10.53;6.83;;;2.70;99.90;;;;;;5383635;26;20288;-80
2024/04/21 03:14:42;;;;;;;9.20;6.07;;;2.70;99.90;;;;;;5379857;26;20229;-78
2024/04/21 03:17:11;;;;;;;10.37;6.63;;;2.70;99.90;;;;;;5384978;26;20276;-80
2024/04/21 03:19:37;;;;;;;9.70;6.00;;;2.80;99.90;;;;;;5383067;26;20241;-78
2024/04/21 03:22:06;;;;;;;9.73;6.47;;;2.70;99.90;;;;;;5382033;26;20310;-79
2024/04/21 03:24:35;;;;;;;10.97;6.63;;;2.60;99.90;;;;;;5383381;26;20242;-80
2024/04/21 03:27:03;;;;;;;8.57;6.57;;;2.60;99.90;;;;;;5384401;26;20293;-79
2024/04/21 03:29:29;;;;;;;8.70;5.80;;;2.50;99.90;;;;;;5380446;26;20291;-79
2024/04/21 03:31:59;;;;;;;9.47;5.93;;;2.50;99.90;;;;;;5383232;26;20669;-80
2024/04/21 03:34:25;;;;;;;8.37;5.90;;;2.50;99.90;;;;;;5383767;26;20830;-80
2024/04/21 03:36:54;;;;;;;10.67;5.80;;;2.40;99.90;;;;;;5383411;26;20253;-80
2024/04/21 03:39:22;;;;;;;9.63;6.37;;;2.40;99.90;;;;;;5384349;26;20276;-80
2024/04/21 03:41:53;;;;;;;11.93;6.83;;;2.40;99.90;;;;;;5383555;26;20276;-80
2024/04/21 03:44:23;;;;;;;9.50;5.97;;;2.40;99.90;;;;;;5382632;26;20253;-78
2024/04/21 03:46:51;;;;;;;9.60;6.30;;;2.30;99.90;;;;;;5382972;26;20234;-82
2024/04/21 03:49:17;;;;;;;10.13;6.47;;;2.20;99.90;;;;;;5373471;26;20730;-80
2024/04/21 03:51:46;;;;;;;11.20;6.63;;;2.10;99.90;;;;;;5382921;26;20280;-81
2024/04/21 03:54:12;;;;;;;12.70;8.23;;;2.10;99.90;;;;;;5374173;26;20300;-81
2024/04/21 03:56:40;;;;;;;14.33;8.07;;;2.30;99.90;;;;;;5383411;26;20351;-79
2024/04/21 03:59:09;;;;;;;11.87;8.20;;;2.30;99.90;;;;;;5380610;26;20348;-81
2024/04/21 04:01:37;;;;;;;12.60;8.57;;;2.30;99.90;;;;;;5379677;26;20789;-81
2024/04/21 04:04:04;;;;;;;11.87;8.33;;;2.40;99.90;;;;;;5383251;26;20284;-81
2024/04/21 04:06:32;;;;;;;11.43;8.07;;;2.20;99.90;;;;;;5372402;26;21001;-80
2024/04/21 04:08:58;;;;;;;11.40;8.53;;;2.20;99.90;;;;;;5383197;26;20242;-80
2024/04/21 04:11:27;;;;;;;11.57;8.13;;;2.20;99.90;;;;;;5370068;26;20275;-79
2024/04/21 04:13:53;;;;;;;12.77;7.90;;;2.30;99.90;;;;;;5379931;26;20255;-81
2024/04/21 04:16:24;;;;;;;13.07;8.27;;;2.30;99.90;;;;;;5380677;26;20237;-79
2024/04/21 04:18:50;;;;;;;14.57;8.93;;;2.20;99.90;;;;;;5377086;26;21005;-80
2024/04/21 04:21:19;;;;;;;13.63;7.87;;;2.30;99.90;;;;;;5375578;26;20250;-79
2024/04/21 04:23:44;;;;;;;13.77;7.73;;;2.30;99.90;;;;;;5370331;26;20591;-78
2024/04/21 04:26:13;;;;;;;13.97;8.77;;;2.50;99.90;;;;;;5381298;26;20260;-80
2024/04/21 04:28:39;;;;;;;14.67;9.00;;;2.80;99.90;;;;;;5378264;26;20728;-79
2024/04/21 04:31:08;;;;;;;14.37;9.73;;;2.90;99.90;;;;;;5379272;26;20279;-79
2024/04/21 04:33:37;;;;;;;14.97;9.40;;;3.10;99.90;;;;;;5379030;26;20770;-80
2024/04/21 04:36:06;;;;;;;13.97;8.87;;;3.30;99.90;;;;;;5376253;26;20242;-79
2024/04/21 04:38:33;;;;;;;13.33;7.50;;;3.50;99.90;;;;;;5381790;26;20292;-78
2024/04/21 04:41:01;;;;;;;15.70;8.80;;;3.10;99.90;;;;;;5381482;26;20306;-79
2024/04/21 04:43:28;;;;;;;14.23;7.87;;;2.90;99.90;;;;;;5382242;26;20276;-79
2024/04/21 04:45:56;;;;;;;15.43;8.83;;;2.80;99.90;;;;;;5375025;26;20324;-77
2024/04/21 04:48:22;;;;;;;12.60;7.43;;;3.20;99.90;;;;;;5381607;26;20294;-80
2024/04/21 04:50:56;;;;;;;12.23;7.77;;;3.40;99.90;;;;;;5381780;26;20742;-79
2024/04/21 04:53:22;;;;;;;15.63;8.10;;;4.20;99.90;;;;;;5371290;26;20241;-78
2024/04/21 04:55:50;;;;;;;13.60;7.37;;;4.60;90.20;;;;;;5380652;26;20276;-79
2024/04/21 04:58:17;;;;;;;12.17;6.93;;;4.60;1.00;;;;;;5383373;26;20245;-79
2024/04/21 05:00:47;;;;;;;12.40;6.40;;;3.90;1.00;;;;;;5383064;26;20309;-80
2024/04/21 05:03:15;;;;;;;12.17;6.73;;;3.80;1.00;;;;;;5389985;26;20249;-80
2024/04/21 05:05:44;;;;;;;12.20;6.47;;;3.90;1.00;;;;;;5382434;26;20881;-78
2024/04/21 05:08:12;;;;;;;11.03;6.13;;;3.80;1.00;;;;;;5381551;26;20272;-81
2024/04/21 05:10:42;;;;;;;11.20;6.60;;;4.60;99.90;;;;;;5367543;26;20278;-79
2024/04/21 05:13:09;;;;;;;11.93;6.13;;;4.20;1.00;;;;;;5369773;26;20287;-80
2024/04/21 05:15:38;;;;;;;10.20;6.13;;;3.90;40.80;;;;;;5375272;26;20301;-80
2024/04/21 05:18:04;;;;;;;10.00;6.07;;;3.90;99.90;;;;;;5375702;26;20292;-78
2024/04/21 05:20:33;;;;;;;11.93;6.03;;;4.00;99.90;;;;;;5371951;26;20249;-79
2024/04/21 05:22:59;;;;;;;11.67;6.00;;;4.10;1.00;;;;;;5374012;26;20267;-79
2024/04/21 05:25:30;;;;;;;9.03;5.23;;;3.60;1.00;;;;;;5380909;26;20233;-80
2024/04/21 05:27:57;;;;;;;10.60;5.73;;;3.90;1.00;;;;;;5380049;26;20241;-79
2024/04/21 05:30:26;;;;;;;9.43;5.27;;;4.00;1.00;;;;;;5378488;26;20245;-79
2024/04/21 05:32:56;;;;;;;11.20;5.80;;;3.40;1.00;;;;;;5360444;26;20815;-80
2024/04/21 05:35:27;;;;;;;10.57;6.10;;;3.20;99.90;;;;;;5376803;26;20824;-79
2024/04/21 05:37:53;;;;;;;10.67;6.20;;;3.70;99.90;;;;;;5378936;26;20896;-79
2024/04/21 05:40:21;;;;;;;11.73;5.80;;;3.90;1.00;;;;;;5378326;26;20245;-82
2024/04/21 05:42:50;;;;;;;10.60;6.80;;;3.90;1.00;;;;;;5380671;26;20288;-80
2024/04/21 05:45:21;;;;;;;10.27;5.73;;;3.40;1.00;;;;;;5382489;26;20682;-79
2024/04/21 05:47:47;;;;;;;10.60;6.13;;;3.60;1.00;;;;;;5378661;26;20261;-78
2024/04/21 05:50:16;;;;;;;9.50;5.57;;;3.40;1.00;;;;;;5380791;26;20237;-79
2024/04/21 05:52:42;;;;;;;10.17;7.07;;;3.50;99.90;;;;;;5377781;26;20358;-79
2024/04/21 05:55:12;;;;;;;10.30;4.87;;;3.50;1.00;;;;;;5375390;26;20249;-78
2024/04/21 05:57:38;;;;;;;10.70;6.17;;;3.50;1.00;;;;;;5380042;26;20300;-80
2024/04/21 06:00:10;;;;;;;12.67;5.97;;;4.70;99.90;;;;;;5381824;26;20245;-80
2024/04/21 06:02:36;;;;;;;9.70;4.80;;;4.60;99.90;;;;;;5376970;26;20237;-80
2024/04/21 06:05:07;;;;;;;8.70;4.80;;;4.60;1.00;;;;;;5373448;26;20233;-81
2024/04/21 06:07:33;;;;;;;10.07;4.70;;;4.20;1.00;;;;;;5381137;26;20331;-79
2024/04/21 06:10:02;;;;;;;9.67;5.30;;;4.20;1.00;;;;;;5375751;26;20254;-80
2024/04/21 06:12:31;;;;;;;7.73;4.73;;;4.30;1.00;;;;;;5381928;26;20288;-79
2024/04/21 06:14:56;;;;;;;8.23;5.23;;;4.10;1.00;;;;;;5372024;26;20616;-79
2024/04/21 06:17:28;;;;;;;10.53;4.43;;;4.00;99.90;;;;;;5384704;26;20287;-79
2024/04/21 06:19:54;;;;;;;9.00;4.83;;;4.30;1.00;;;;;;5382626;26;20242;-77
2024/04/21 06:22:23;;;;;;;9.10;5.13;;;4.00;1.00;;;;;;5376656;26;20238;-79
2024/04/21 06:24:50;;;;;;;10.10;5.10;;;4.40;99.90;;;;;;5381339;26;20234;-78
2024/04/21 06:27:18;;;;;;;8.93;5.07;;;4.90;1.00;;;;;;5381701;26;20241;-78
2024/04/21 06:29:45;;;;;;;9.40;5.17;;;5.40;1.00;;;;;;5381543;26;20292;-78
2024/04/21 06:32:14;;;;;;;8.60;5.10;;;5.10;1.00;;;;;;5383590;26;20350;-80
2024/04/21 06:34:43;;;;;;;8.03;4.60;;;5.20;1.00;;;;;;5377284;26;20354;-79
2024/04/21 06:37:11;;;;;;;8.93;5.00;;;5.20;99.90;;;;;;5384195;26;20822;-78
2024/04/21 06:39:37;;;;;;;9.00;4.60;;;4.70;95.60;;;;;;5382944;26;20249;-78
2024/04/21 06:42:08;;;;;;;8.47;5.20;;;5.30;1.00;;;;;;5380297;26;20617;-79
2024/04/21 06:44:34;;;;;;;8.20;4.50;;;5.40;1.00;;;;;;5377354;26;20253;-77
2024/04/21 06:47:03;;;;;;;8.23;4.23;;;5.50;1.00;;;;;;5383856;26;20300;-78
2024/04/21 06:49:30;;;;;;;6.40;4.07;;;5.30;1.00;;;;;;5380341;26;20290;-80
2024/04/21 06:52:01;;;;;;;9.00;4.93;;;5.80;99.90;;;;;;5380773;26;20241;-80
2024/04/21 06:54:27;;;;;;;8.07;4.80;;;5.90;30.50;;;;;;5373559;26;20241;-78
2024/04/21 06:56:55;;;;;;;8.57;4.60;;;6.20;1.00;;;;;;5383318;26;20271;-77
2024/04/21 06:59:22;;;;;;;7.40;4.50;;;6.30;1.00;;;;;;5379506;26;20782;-79
2024/04/21 07:01:51;;;;;;;8.33;4.60;;;5.90;1.00;;;;;;5382589;26;20241;-79
2024/04/21 07:04:17;;;;;;;9.47;5.07;;;5.70;1.00;;;;;;5375364;26;20751;-78
2024/04/21 07:06:48;;;;;;;6.20;4.00;;;6.20;1.00;;;;;;5379143;26;20297;-78
2024/04/21 07:09:16;;;;;;;6.53;4.47;;;6.10;1.00;;;;;;5384643;26;20241;-79
2024/04/21 07:11:45;;;;;;;9.80;4.90;;;6.10;1.00;;;;;;5374039;26;20238;-79
2024/04/21 07:14:11;;;;;;;9.10;4.60;;;6.30;99.90;;;;;;5378310;26;20245;-78
2024/04/21 07:16:41;;;;;;;4.80;3.17;;;6.70;1.00;;;;;;5383205;26;20821;-78
2024/04/21 07:19:08;;;;;;;5.57;3.87;;;6.20;1.00;;;;;;5372220;26;20300;-76
2024/04/21 07:21:37;;;;;;;8.17;4.67;;;6.00;1.00;;;;;;5374824;26;20794;-80
2024/04/21 07:24:06;;;;;;;7.03;4.63;;;6.50;1.00;;;;;;5382356;26;20762;-78
2024/04/21 07:26:37;;;;;;;10.77;4.47;;;6.40;99.90;;;;;;5382712;26;20275;-78
2024/04/21 07:29:05;;;;;;;7.17;4.73;;;6.90;99.90;;;;;;5383240;26;20241;-82
2024/04/21 07:31:33;;;;;;;8.30;4.87;;;6.70;99.90;;;;;;5384620;26;20245;-78
2024/04/21 07:34:03;;;;;;;7.27;4.13;;;6.30;1.00;;;;;;5373250;26;20280;-78
2024/04/21 07:36:31;;;;;;;8.70;4.77;;;6.50;99.90;;;;;;5383189;26;20249;-79
2024/04/21 07:38:58;;;;;;;6.50;4.30;;;6.70;1.00;;;;;;5382180;26;20238;-79
2024/04/21 07:41:30;;;;;;;9.87;5.50;;;6.60;1.00;;;;;;5382541;26;20249;-79
2024/04/21 07:43:59;;;;;;;7.60;4.60;;;6.80;1.00;;;;;;5382844;26;20731;-79
2024/04/21 07:46:28;;;;;;;7.20;4.67;;;6.70;1.00;;;;;;5370479;26;20356;-78
2024/04/21 07:48:54;;;;;;;9.50;4.50;;;6.40;99.90;;;;;;5378473;26;20598;-78
2024/04/21 07:51:23;;;;;;;7.40;3.77;;;6.50;1.00;;;;;;5381698;26;20245;-78
2024/04/21 07:53:49;;;;;;;7.17;4.00;;;6.50;99.90;;;;;;5372438;26;20247;-78
2024/04/21 07:56:18;;;;;;;5.83;2.43;;;6.60;99.90;;;;;;5380654;26;20289;-79
2024/04/21 07:58:44;;;;;;;9.37;4.57;;;6.50;1.00;;;;;;5384258;26;20578;-78
2024/04/21 08:01:15;;;;;;;7.70;3.73;;;7.10;99.90;;;;;;5383830;26;20250;-80
2024/04/21 08:03:42;;;;;;;6.60;3.67;;;7.10;1.80;;;;;;5370560;26;20284;-78
2024/04/21 08:06:11;;;;;;;7.87;3.60;;;6.90;1.00;;;;;;5381525;26;20284;-78
2024/04/21 08:08:37;;;;;;;4.47;2.80;;;6.50;1.00;;;;;;5383535;26;21038;-79
2024/04/21 08:11:09;;;;;;;6.23;3.60;;;6.40;1.00;;;;;;5374675;26;20245;-78
2024/04/21 08:13:35;;;;;;;6.27;4.03;;;6.40;1.00;;;;;;5383516;26;20245;-80
2024/04/21 08:16:04;;;;;;;6.57;4.27;;;6.90;1.00;;;;;;5381920;26;20284;-77
2024/04/21 08:18:33;;;;;;;5.63;3.00;;;7.50;1.00;;;;;;5381294;26;20300;-79
2024/04/21 08:21:02;;;;;;;5.43;2.90;;;7.10;1.00;;;;;;5378200;26;20238;-78
2024/04/21 08:23:30;;;;;;;6.43;3.67;;;6.90;1.00;;;;;;5381906;26;20233;-79
2024/04/21 08:26:02;;;;;;;4.77;3.10;;;7.20;1.00;;;;;;5379979;26;20251;-78
2024/04/21 08:28:29;;;;;;;6.03;2.93;;;7.50;99.90;;;;;;5381972;26;20861;-78
2024/04/21 08:30:57;;;;;;;6.03;3.53;;;7.50;99.90;;;;;;5380582;26;20245;-79
2024/04/21 08:33:25;;;;;;;6.33;3.40;;;7.50;99.90;;;;;;5369689;26;20273;-79
2024/04/21 08:35:57;;;;;;;5.40;3.30;;;7.00;99.90;;;;;;5382041;26;20316;-77
2024/04/21 08:38:24;;;;;;;5.73;3.03;;;6.50;99.90;;;;;;5372669;26;20238;-77
2024/04/21 08:40:54;;;;;;;6.23;3.63;;;6.50;99.90;;;;;;5372827;26;20292;-77
2024/04/21 08:43:23;;;;;;;4.90;3.07;;;6.40;99.90;;;;;;5377123;26;20245;-78
2024/04/21 08:45:54;;;;;;;6.87;3.27;;;7.20;99.90;;;;;;5373316;26;20284;-78
2024/04/21 08:48:20;;;;;;;5.77;3.40;;;7.00;97.00;;;;;;5367581;26;20242;-79
2024/04/21 08:50:50;;;;;;;4.07;2.67;;;7.00;99.90;;;;;;5372809;26;20307;-78
2024/04/21 08:53:18;;;;;;;5.77;2.90;;;7.40;49.90;;;;;;5373609;26;20276;-77
2024/04/21 08:55:50;;;;;;;6.00;3.53;;;7.60;1.00;;;;;;5370564;26;20249;-78
2024/04/21 08:58:17;;;;;;;5.17;2.97;;;7.70;1.00;;;;;;5381544;26;20299;-77
2024/04/21 09:00:48;;;;;;;5.10;2.60;;;8.00;1.00;;;;;;5371766;26;20275;-78
2024/04/21 09:03:15;;;;;;;5.03;3.03;;;8.10;1.00;;;;;;5369389;26;20288;-78
2024/04/21 09:05:44;;;;;;;4.37;2.80;;;8.50;1.00;;;;;;5376036;26;20288;-78
2024/04/21 09:08:10;;;;;;;5.67;2.43;;;8.70;1.00;;;;;;5380084;26;20230;-77
2024/04/21 09:10:41;;;;;;;4.10;2.80;;;9.10;1.00;;;;;;5375986;26;20302;-77
2024/04/21 09:13:09;;;;;;;4.17;2.77;;;8.60;1.00;;;;;;5372860;26;20313;-79
2024/04/21 09:15:37;;;;;;;4.93;2.43;;;7.70;1.00;;;;;;5372264;26;20247;-79
2024/04/21 09:18:04;;;;;;;3.20;1.93;;;7.20;1.00;;;;;;5362889;26;20250;-78
2024/04/21 09:20:33;;;;;;;5.17;2.80;;;6.90;1.00;;;;;;5380414;26;20292;-78
2024/04/21 09:23:00;;;;;;;4.77;2.77;;;7.00;1.00;;;;;;5370469;26;20246;-80
2024/04/21 09:25:28;;;;;;;5.47;2.97;;;7.00;1.00;;;;;;5374085;26;20257;-78
2024/04/21 09:28:03;;;;;;;4.13;2.50;;;7.00;1.00;;;;;;5376777;26;20332;-78
2024/04/21 09:30:31;;;;;;;4.43;2.50;;;7.00;1.00;;;;;;5375670;26;20241;-78
2024/04/21 09:32:58;;;;;;;4.40;2.10;;;7.30;1.00;;;;;;5375956;26;20631;-78
2024/04/21 09:35:27;;;;;;;3.33;1.80;;;7.50;1.00;;;;;;5371342;26;20846;-78
2024/04/21 09:37:55;;;;;;;1.43;1.10;;;7.30;1.00;;;;;;5377827;26;20249;-77
2024/04/21 09:40:24;;;;;;;3.70;2.33;;;7.00;99.90;;;;;;5370168;26;20242;-78
2024/04/21 09:42:52;;;;;;;2.27;1.50;;;7.00;99.90;;;;;;5381573;26;20234;-77
2024/04/21 09:45:25;;;;;;;4.10;2.70;;;7.70;99.90;;;;;;5359290;26;20239;-78
2024/04/21 09:47:52;;;;;;;4.37;2.47;;;7.30;1.00;;;;;;5362778;26;20832;-77
2024/04/21 09:50:23;;;;;;;3.07;2.10;;;7.90;99.90;;;;;;5373448;26;20292;-77
2024/04/21 09:52:52;;;;;;;3.23;2.23;;;7.80;99.90;;;;;;5371814;26;20257;-77
2024/04/21 09:55:21;;;;;;;2.83;1.87;;;8.30;99.90;;;;;;5367772;26;20238;-78
2024/04/21 09:57:55;;;;;;;4.33;2.10;;;7.10;99.90;;;;;;5382826;26;20296;-77
2024/04/21 10:00:27;;;;;;;5.33;3.20;;;6.60;1.00;;;;;;5363469;26;20298;-77
2024/04/21 10:02:54;;;;;;;4.53;2.67;;;6.30;1.00;;;;;;5375671;26;20238;-78
2024/04/21 10:05:28;;;;;;;5.03;2.83;;;6.00;1.00;;;;;;5384271;26;20346;-78
2024/04/21 10:07:58;;;;;;;4.40;2.93;;;5.40;1.00;;;;;;5373771;26;20271;-77
2024/04/21 10:10:31;;;;;;;5.80;2.97;;;5.50;1.00;;;;;;5383238;26;20245;-78
2024/04/21 10:12:58;;;;;;;6.63;3.50;;;5.70;1.00;;;;;;5383896;26;20594;-78
2024/04/21 10:15:32;;;;;;;4.87;2.80;;;5.80;1.00;;;;;;5381594;26;20257;-78
2024/04/21 10:17:59;;;;;;;5.13;2.73;;;5.70;1.00;;;;;;5375180;26;20260;-77
2024/04/21 10:20:32;;;;;;;4.63;3.00;;;5.90;1.00;;;;;;5385364;26;20230;-77
2024/04/21 10:23:00;;;;;;;3.10;1.83;;;6.10;1.00;;;;;;5377507;26;20253;-77
2024/04/21 10:25:29;;;;;;;3.50;2.13;;;6.20;1.00;;;;;;5382646;26;20245;-78
2024/04/21 10:28:05;;;;;;;6.53;1.83;;;6.50;1.00;;;;;;5370646;26;20623;-77
2024/04/21 10:30:38;;;;;;;3.90;1.63;;;6.60;99.90;;;;;;5381190;26;20241;-77
2024/04/21 10:33:10;;;;;;;7.10;3.00;;;6.60;1.00;;;;;;5356028;26;20292;-77
2024/04/21 10:35:40;;;;;;;5.77;3.10;;;7.30;1.00;;;;;;5375204;26;20625;-78
2024/04/21 10:38:08;;;;;;;4.47;2.60;;;7.70;1.00;;;;;;5362240;26;20250;-79
2024/04/21 10:40:40;;;;;;;5.50;3.23;;;7.90;1.00;;;;;;5371091;26;20909;-78
2024/04/21 10:43:08;;;;;;;7.53;3.03;;;7.80;1.00;;;;;;5377530;26;20238;-79
2024/04/21 10:45:41;;;;;;;3.43;2.40;;;7.90;1.00;;;;;;5371149;26;20288;-79
2024/04/21 10:48:08;;;;;;;2.47;2.10;;;7.80;1.00;;;;;;5366978;26;20736;-80
2024/04/21 10:50:38;;;;;;;3.90;2.67;;;7.90;1.00;;;;;;5370519;26;20280;-78
2024/04/21 10:53:06;;;;;;;4.00;2.50;;;7.20;1.00;;;;;;5364463;26;20296;-80
2024/04/21 10:55:35;;;;;;;4.00;2.33;;;7.90;99.90;;;;;;5374607;26;20279;-77
2024/04/21 10:58:03;;;;;;;2.67;1.90;;;8.10;99.90;;;;;;5367961;26;20249;-78
2024/04/21 11:00:33;;;;;;;4.23;2.00;;;8.00;99.90;;;;;;5369171;26;20799;-79
2024/04/21 11:03:02;;;;;;;4.83;2.23;;;8.20;99.90;;;;;;5374370;26;20288;-77
2024/04/21 11:05:38;;;;;;;4.17;2.07;;;8.10;99.90;;;;;;5381352;26;20254;-79
2024/04/21 11:08:05;;;;;;;5.67;3.00;;;8.30;99.90;;;;;;5327335;26;1168383;-78
2024/04/21 11:10:36;;;;;;;6.67;1.77;;;8.00;99.90;;;;;;5367214;26;20823;-78
2024/04/21 11:13:06;;;;;;;4.47;2.63;;;8.70;99.90;;;;;;5368203;26;20245;-79
2024/04/21 11:15:42;;;;;;;2.50;1.60;;;9.00;99.90;;;;;;5364414;26;20254;-77
2024/04/21 11:18:12;;;;;;;1.87;1.27;;;7.90;99.90;;;;;;5372281;26;20312;-78
2024/04/21 11:20:41;;;;;;;4.50;2.03;;;7.30;99.90;;;;;;5381800;26;20242;-81
2024/04/21 11:23:09;;;;;;;2.80;2.00;;;7.70;99.90;;;;;;5366923;26;20604;-79
2024/04/21 11:25:38;;;;;;;4.70;2.57;;;7.70;99.90;;;;;;5373216;26;20246;-78
2024/04/21 11:28:11;;;;;;;4.87;3.17;;;7.70;99.90;;;;;;5372542;26;20250;-78
2024/04/21 11:30:40;;;;;;;3.30;2.50;;;8.10;99.90;;;;;;5362825;26;20247;-78
2024/04/21 11:33:10;;;;;;;2.27;1.87;;;8.00;99.90;;;;;;5368367;26;20247;-78
2024/04/21 11:35:45;;;;;;;2.93;2.13;;;8.50;99.90;;;;;;5368947;26;20247;-79
2024/04/21 11:38:11;;;;;;;6.00;2.27;;;8.30;99.90;;;;;;5378427;26;20303;-79
2024/04/21 11:40:41;;;;;;;4.17;2.60;;;7.80;99.90;;;;;;5381291;26;20242;-79
2024/04/21 11:43:08;;;;;;;4.37;2.57;;;8.00;99.90;;;;;;5372046;26;20676;-78
2024/04/21 11:45:44;;;;;;;4.47;2.60;;;8.00;99.90;;;;;;5370999;26;20281;-80
2024/04/21 11:48:13;;;;;;;2.87;2.03;;;8.70;99.90;;;;;;5373473;26;20288;-79
2024/04/21 11:50:41;;;;;;;4.37;2.60;;;8.70;99.90;;;;;;5370893;26;20802;-79
2024/04/21 11:53:07;;;;;;;3.37;2.33;;;8.60;93.10;;;;;;5375041;26;20290;-79
2024/04/21 11:55:36;;;;;;;3.87;2.77;;;8.90;99.90;;;;;;5368904;26;20246;-78
2024/04/21 11:58:08;;;;;;;3.60;2.47;;;9.10;99.90;;;;;;5371783;26;20261;-78
2024/04/21 12:00:39;;;;;;;2.50;2.30;;;9.30;99.90;;;;;;5373213;26;20237;-80
2024/04/21 12:03:05;;;;;;;3.47;2.30;;;8.90;60.70;;;;;;5366412;26;20647;-79
2024/04/21 12:05:36;;;;;;;4.20;2.47;;;8.30;1.00;;;;;;5378503;26;20276;-78
2024/04/21 12:08:03;;;;;;;3.43;2.17;;;8.30;1.00;;;;;;5382240;26;20249;-78
2024/04/21 12:10:32;;;;;;;6.47;2.30;;;8.10;1.00;;;;;;5378276;26;20241;-79
2024/04/21 12:13:00;;;;;;;3.80;2.57;;;8.30;1.00;;;;;;5375852;26;20245;-79
2024/04/21 12:15:30;;;;;;;3.97;2.50;;;8.80;1.00;;;;;;5373008;26;20292;-79
2024/04/21 12:18:05;;;;;;;3.07;2.23;;;9.20;1.00;;;;;;5369856;26;20791;-78
2024/04/21 12:20:37;;;;;;;4.30;2.80;;;9.70;41.80;;;;;;5381531;26;20292;-80
2024/04/21 12:23:05;;;;;;;4.43;2.87;;;9.50;41.30;;;;;;5377921;26;20241;-79
2024/04/21 12:25:34;;;;;;;2.87;2.53;;;9.90;99.90;;;;;;5371606;26;20280;-78
2024/04/21 12:28:00;;;;;;;3.33;2.60;;;10.00;58.10;;;;;;5368713;26;20249;-78
2024/04/21 12:30:29;;;;;;;5.33;2.70;;;9.80;1.00;;;;;;5371128;26;20250;-78
2024/04/21 12:32:55;;;;;;;4.07;2.70;;;8.80;1.00;;;;;;5373191;26;20595;-79
2024/04/21 12:35:24;;;;;;;4.03;2.77;;;8.40;1.00;;;;;;5369726;26;21011;-78
2024/04/21 12:37:53;;;;;;;1.60;1.23;;;8.60;1.00;;;;;;5374269;26;20249;-78
2024/04/21 12:40:21;;;;;;;2.37;2.10;;;8.60;1.00;;;;;;5368248;26;20249;-79
2024/04/21 12:42:47;;;;;;;3.10;2.23;;;8.40;1.00;;;;;;5365227;26;20251;-80
2024/04/21 12:45:16;;;;;;;4.23;2.40;;;8.30;1.00;;;;;;5372565;26;20693;-80
2024/04/21 12:47:42;;;;;;;2.53;2.33;;;8.20;1.00;;;;;;5378888;26;20728;-79
2024/04/21 12:50:11;;;;;;;3.30;2.50;;;9.40;47.10;;;;;;5370536;26;20249;-80
2024/04/21 12:52:36;;;;;;;3.53;2.20;;;9.30;7.10;;;;;;5359743;26;20764;-80
2024/04/21 12:55:10;;;;;;;2.83;1.97;;;9.50;52.30;;;;;;5364698;26;20354;-79
2024/04/21 12:57:36;;;;;;;3.37;2.47;;;9.00;1.00;;;;;;5366242;26;20249;-80
2024/04/21 13:00:06;;;;;;;4.23;2.53;;;8.60;1.00;;;;;;5375359;26;20305;-79
2024/04/21 13:02:32;;;;;;;5.20;2.60;;;8.40;27.60;;;;;;5362999;26;20644;-77
2024/04/21 13:05:01;;;;;;;3.43;2.30;;;8.50;1.00;;;;;;5378857;26;20242;-79